sensor_id;sensor_type;location;lat;lon;timestamp;temperature;humidity
7894;DHT22;51343;51.396;6.656;2023-10-19T00:50:01;11.30;99.90
7894;DHT22;51343;51.396;6.656;2023-10-19T03:30:12;12.50;99.90
7894;DHT22;51343;51.396;6.656;2023-10-19T03:58:57;12.30;99.90
7894;DHT22;51343;51.396;6.656;2023-10-19T04:17:02;12.30;99.90
7894;DHT22;51343;51.396;6.656;2023-10-19T04:19:38;12.30;99.90
7894;DHT22;51343;51.396;6.656;2023-10-19T04:43:20;12.50;99.90
7894;DHT22;51343;51.396;6.656;2023-10-19T04:50:59;12.50;99.90
7894;DHT22;51343;51.396;6.656;2023-10-19T07:19:28;13.00;99.90
7894;DHT22;51343;51.396;6.656;2023-10-19T07:37:29;13.20;99.90
7894;DHT22;51343;51.396;6.656;2023-10-19T08:49:53;14.30;99.90
7894;DHT22;51343;51.396;6.656;2023-10-19T09:10:37;14.80;99.90
7894;DHT22;51343;51.396;6.656;2023-10-19T09:13:12;15.00;99.90
7894;DHT22;51343;51.396;6.656;2023-10-19T09:15:52;15.10;99.90
7894;DHT22;51343;51.396;6.656;2023-10-19T09:18:21;15.30;99.90
7894;DHT22;51343;51.396;6.656;2023-10-19T09:20:48;15.50;99.90
7894;DHT22;51343;51.396;6.656;2023-10-19T10:15:39;17.80;1.00
7894;DHT22;51343;51.396;6.656;2023-10-19T10:18:15;17.70;1.00
7894;DHT22;51343;51.396;6.656;2023-10-19T10:26:12;18.20;99.90
7894;DHT22;51343;51.396;6.656;2023-10-19T10:28:39;18.40;1.00
7894;DHT22;51343;51.396;6.656;2023-10-19T10:31:09;18.60;99.90
7894;DHT22;51343;51.396;6.656;2023-10-19T10:33:42;18.60;1.00
7894;DHT22;51343;51.396;6.656;2023-10-19T10:36:11;18.60;1.00
7894;DHT22;51343;51.396;6.656;2023-10-19T10:38:38;18.60;1.00
7894;DHT22;51343;51.396;6.656;2023-10-19T10:41:04;18.60;1.00
7894;DHT22;51343;51.396;6.656;2023-10-19T10:43:47;18.60;1.00
7894;DHT22;51343;51.396;6.656;2023-10-19T10:46:18;18.60;1.00
7894;DHT22;51343;51.396;6.656;2023-10-19T10:48:46;18.50;1.00
7894;DHT22;51343;51.396;6.656;2023-10-19T10:51:14;18.40;1.00
7894;DHT22;51343;51.396;6.656;2023-10-19T10:53:41;18.30;1.00
7894;DHT22;51343;51.396;6.656;2023-10-19T10:56:08;18.30;1.00
7894;DHT22;51343;51.396;6.656;2023-10-19T10:58:36;18.60;1.00
7894;DHT22;51343;51.396;6.656;2023-10-19T11:01:05;19.40;1.00
7894;DHT22;51343;51.396;6.656;2023-10-19T11:03:33;19.90;1.00
7894;DHT22;51343;51.396;6.656;2023-10-19T11:06:03;20.20;99.90
7894;DHT22;51343;51.396;6.656;2023-10-19T11:08:30;20.50;99.90
7894;DHT22;51343;51.396;6.656;2023-10-19T11:11:01;20.60;99.90
7894;DHT22;51343;51.396;6.656;2023-10-19T11:13:29;20.50;99.90
7894;DHT22;51343;51.396;6.656;2023-10-19T11:15:58;20.50;99.90
7894;DHT22;51343;51.396;6.656;2023-10-19T11:18:29;20.60;99.90
7894;DHT22;51343;51.396;6.656;2023-10-19T11:20:57;20.70;99.90
7894;DHT22;51343;51.396;6.656;2023-10-19T11:26:12;20.70;99.90
7894;DHT22;51343;51.396;6.656;2023-10-19T11:28:39;20.50;99.90
7894;DHT22;51343;51.396;6.656;2023-10-19T11:31:13;20.10;99.90
7894;DHT22;51343;51.396;6.656;2023-10-19T11:33:40;19.60;99.90
7894;DHT22;51343;51.396;6.656;2023-10-19T11:36:09;19.30;99.90
7894;DHT22;51343;51.396;6.656;2023-10-19T11:38:38;18.90;99.90
7894;DHT22;51343;51.396;6.656;2023-10-19T11:41:05;18.50;99.90
7894;DHT22;51343;51.396;6.656;2023-10-19T11:43:33;18.30;1.00
7894;DHT22;51343;51.396;6.656;2023-10-19T11:45:59;18.20;1.00
7894;DHT22;51343;51.396;6.656;2023-10-19T11:48:26;18.10;1.00
7894;DHT22;51343;51.396;6.656;2023-10-19T11:50:53;18.00;1.00
7894;DHT22;51343;51.396;6.656;2023-10-19T11:53:21;18.30;1.00
7894;DHT22;51343;51.396;6.656;2023-10-19T11:55:48;18.60;1.00
7894;DHT22;51343;51.396;6.656;2023-10-19T11:58:14;18.80;1.00
7894;DHT22;51343;51.396;6.656;2023-10-19T12:00:41;19.00;99.90
7894;DHT22;51343;51.396;6.656;2023-10-19T12:03:09;19.00;1.00
7894;DHT22;51343;51.396;6.656;2023-10-19T12:05:35;19.00;99.90
7894;DHT22;51343;51.396;6.656;2023-10-19T12:08:03;19.00;99.90
7894;DHT22;51343;51.396;6.656;2023-10-19T12:10:31;19.00;1.00
7894;DHT22;51343;51.396;6.656;2023-10-19T12:13:01;18.90;1.00
7894;DHT22;51343;51.396;6.656;2023-10-19T12:15:29;18.80;99.90
7894;DHT22;51343;51.396;6.656;2023-10-19T12:17:56;18.80;99.90
7894;DHT22;51343;51.396;6.656;2023-10-19T12:20:22;18.80;99.90
7894;DHT22;51343;51.396;6.656;2023-10-19T12:22:49;18.80;99.90
7894;DHT22;51343;51.396;6.656;2023-10-19T12:25:19;18.70;1.00
7894;DHT22;51343;51.396;6.656;2023-10-19T12:27:47;18.60;1.00
7894;DHT22;51343;51.396;6.656;2023-10-19T12:30:14;18.60;1.00
7894;DHT22;51343;51.396;6.656;2023-10-19T12:32:45;18.50;1.00
7894;DHT22;51343;51.396;6.656;2023-10-19T12:35:14;18.50;1.00
7894;DHT22;51343;51.396;6.656;2023-10-19T12:37:45;18.40;1.00
7894;DHT22;51343;51.396;6.656;2023-10-19T12:40:16;18.40;1.00
7894;DHT22;51343;51.396;6.656;2023-10-19T12:42:54;18.30;1.00
7894;DHT22;51343;51.396;6.656;2023-10-19T12:45:21;18.20;35.00
7894;DHT22;51343;51.396;6.656;2023-10-19T12:47:48;18.10;1.00
7894;DHT22;51343;51.396;6.656;2023-10-19T12:50:15;18.00;4.60
7894;DHT22;51343;51.396;6.656;2023-10-19T12:52:44;18.10;1.00
7894;DHT22;51343;51.396;6.656;2023-10-19T12:55:11;18.10;23.40
7894;DHT22;51343;51.396;6.656;2023-10-19T12:57:37;18.00;1.00
7894;DHT22;51343;51.396;6.656;2023-10-19T13:00:08;17.90;99.90
7894;DHT22;51343;51.396;6.656;2023-10-19T13:03:18;17.90;99.90
7894;DHT22;51343;51.396;6.656;2023-10-19T13:05:44;17.70;1.00
7894;DHT22;51343;51.396;6.656;2023-10-19T13:08:12;17.60;1.00
7894;DHT22;51343;51.396;6.656;2023-10-19T13:10:40;17.50;89.40
7894;DHT22;51343;51.396;6.656;2023-10-19T13:13:17;17.40;99.90
7894;DHT22;51343;51.396;6.656;2023-10-19T13:15:48;17.20;1.00
7894;DHT22;51343;51.396;6.656;2023-10-19T13:18:15;17.10;92.10
7894;DHT22;51343;51.396;6.656;2023-10-19T13:20:46;17.00;1.00
7894;DHT22;51343;51.396;6.656;2023-10-19T13:23:17;17.10;1.00
7894;DHT22;51343;51.396;6.656;2023-10-19T13:25:47;17.00;1.00
7894;DHT22;51343;51.396;6.656;2023-10-19T13:28:19;16.90;99.90
7894;DHT22;51343;51.396;6.656;2023-10-19T13:46:19;16.60;1.00
7894;DHT22;51343;51.396;6.656;2023-10-19T14:12:08;16.40;1.00
7894;DHT22;51343;51.396;6.656;2023-10-19T15:06:24;16.20;99.90
7894;DHT22;51343;51.396;6.656;2023-10-19T15:14:02;16.00;99.90
7894;DHT22;51343;51.396;6.656;2023-10-19T15:16:30;16.00;99.90
7894;DHT22;51343;51.396;6.656;2023-10-19T15:19:36;16.00;99.90
7894;DHT22;51343;51.396;6.656;2023-10-19T15:40:13;16.10;99.90
7894;DHT22;51343;51.396;6.656;2023-10-19T15:42:40;16.10;99.90
7894;DHT22;51343;51.396;6.656;2023-10-19T15:47:43;16.10;99.90
7894;DHT22;51343;51.396;6.656;2023-10-19T15:53:12;16.10;99.90
7894;DHT22;51343;51.396;6.656;2023-10-19T15:55:42;16.10;99.90
7894;DHT22;51343;51.396;6.656;2023-10-19T15:58:08;16.10;99.90
7894;DHT22;51343;51.396;6.656;2023-10-19T16:00:36;16.10;99.90
7894;DHT22;51343;51.396;6.656;2023-10-19T16:03:07;16.10;99.90
7894;DHT22;51343;51.396;6.656;2023-10-19T16:05:35;16.10;99.90
7894;DHT22;51343;51.396;6.656;2023-10-19T16:08:03;16.10;99.90
7894;DHT22;51343;51.396;6.656;2023-10-19T16:15:42;16.00;99.90
7894;DHT22;51343;51.396;6.656;2023-10-19T16:28:30;15.70;99.90
7894;DHT22;51343;51.396;6.656;2023-10-19T16:31:06;15.70;99.90
7894;DHT22;51343;51.396;6.656;2023-10-19T16:33:39;15.60;99.90
7894;DHT22;51343;51.396;6.656;2023-10-19T16:36:08;15.60;99.90
7894;DHT22;51343;51.396;6.656;2023-10-19T16:38:37;15.50;99.90
7894;DHT22;51343;51.396;6.656;2023-10-19T16:41:05;15.50;99.90
7894;DHT22;51343;51.396;6.656;2023-10-19T16:43:32;15.40;99.90
7894;DHT22;51343;51.396;6.656;2023-10-19T16:45:59;15.40;99.90
7894;DHT22;51343;51.396;6.656;2023-10-19T16:48:27;15.30;99.90
7894;DHT22;51343;51.396;6.656;2023-10-19T16:50:54;15.30;99.90
7894;DHT22;51343;51.396;6.656;2023-10-19T16:53:20;15.20;99.90
7894;DHT22;51343;51.396;6.656;2023-10-19T18:01:29;14.30;99.90
7894;DHT22;51343;51.396;6.656;2023-10-19T18:06:38;14.40;99.90
7894;DHT22;51343;51.396;6.656;2023-10-19T18:11:51;14.30;99.90
7894;DHT22;51343;51.396;6.656;2023-10-19T18:14:17;14.30;99.90
7894;DHT22;51343;51.396;6.656;2023-10-19T18:19:24;14.40;99.90
7894;DHT22;51343;51.396;6.656;2023-10-19T18:27:01;14.20;99.90
7894;DHT22;51343;51.396;6.656;2023-10-19T18:29:28;14.20;99.90
7894;DHT22;51343;51.396;6.656;2023-10-19T18:44:46;14.10;99.90
7894;DHT22;51343;51.396;6.656;2023-10-19T18:52:23;14.20;99.90
7894;DHT22;51343;51.396;6.656;2023-10-19T18:54:50;14.30;99.90
7894;DHT22;51343;51.396;6.656;2023-10-19T18:57:21;14.30;99.90
7894;DHT22;51343;51.396;6.656;2023-10-19T18:59:49;14.20;99.90
7894;DHT22;51343;51.396;6.656;2023-10-19T19:02:16;14.20;99.90
7894;DHT22;51343;51.396;6.656;2023-10-19T19:04:43;14.10;99.90
7894;DHT22;51343;51.396;6.656;2023-10-19T19:07:10;14.10;99.90
7894;DHT22;51343;51.396;6.656;2023-10-19T19:09:37;14.20;99.90
7894;DHT22;51343;51.396;6.656;2023-10-19T19:12:04;14.10;99.90
7894;DHT22;51343;51.396;6.656;2023-10-19T19:17:08;14.30;99.90
7894;DHT22;51343;51.396;6.656;2023-10-19T19:40:19;14.60;99.90
7894;DHT22;51343;51.396;6.656;2023-10-19T20:16:39;14.30;99.90
7894;DHT22;51343;51.396;6.656;2023-10-19T20:19:06;14.40;99.90
7894;DHT22;51343;51.396;6.656;2023-10-19T20:21:34;14.50;99.90
7894;DHT22;51343;51.396;6.656;2023-10-19T20:24:04;14.50;99.90
7894;DHT22;51343;51.396;6.656;2023-10-19T20:26:32;14.50;99.90
7894;DHT22;51343;51.396;6.656;2023-10-19T20:28:59;14.50;99.90
7894;DHT22;51343;51.396;6.656;2023-10-19T22:51:18;14.60;99.90
7894;DHT22;51343;51.396;6.656;2023-10-19T23:12:00;14.80;99.90
